createdAt,value
2017-07-01T00:00:34.541Z,11.05
2017-07-01T00:03:07.317Z,11.77
2017-07-01T00:05:39.620Z,10.35
2017-07-01T00:08:12.200Z,10.18
2017-07-01T00:10:45.333Z,10.35
2017-07-01T00:13:17.661Z,10.02
2017-07-01T00:15:50.034Z,10.90
2017-07-01T00:18:22.486Z,9.23
2017-07-01T00:20:54.993Z,9.52
2017-07-01T00:23:27.473Z,12.15
2017-07-01T00:25:59.832Z,9.05
2017-07-01T00:28:33.189Z,7.82
2017-07-01T00:31:05.563Z,8.45
2017-07-01T00:33:37.964Z,8.52
2017-07-01T00:36:10.256Z,9.13
2017-07-01T00:38:42.719Z,8.35
2017-07-01T00:41:15.853Z,9.13
2017-07-01T00:43:48.335Z,9.07
2017-07-01T00:46:21.193Z,8.90
2017-07-01T00:48:54.324Z,9.70
2017-07-01T00:51:26.728Z,10.02
2017-07-01T00:53:59.256Z,10.05
2017-07-01T00:56:32.229Z,10.27
2017-07-01T00:59:04.613Z,11.32
2017-07-01T01:01:36.897Z,10.20
2017-07-01T01:04:10.273Z,10.43
2017-07-01T01:06:42.757Z,11.00
2017-07-01T01:09:15.178Z,11.70
2017-07-01T01:11:47.578Z,11.45
2017-07-01T01:14:20.264Z,10.20
2017-07-01T01:16:52.761Z,10.93
2017-07-01T01:19:26.142Z,11.40
2017-07-01T01:21:58.622Z,11.35
2017-07-01T01:24:31.063Z,11.70
2017-07-01T01:27:03.438Z,10.65
2017-07-01T01:29:36.677Z,11.63
2017-07-01T01:32:09.120Z,12.23
2017-07-01T01:34:41.656Z,12.68
2017-07-01T01:37:14.768Z,12.45
2017-07-01T01:39:48.176Z,13.50
2017-07-01T01:42:20.584Z,12.30
2017-07-01T01:44:53.229Z,13.40
2017-07-01T01:47:25.602Z,12.65
2017-07-01T01:49:58.113Z,12.85
2017-07-01T01:52:30.472Z,13.20
2017-07-01T01:55:02.972Z,13.38
2017-07-01T01:57:35.333Z,13.57
2017-07-01T02:00:08.545Z,12.80
2017-07-01T02:02:40.892Z,13.65
2017-07-01T02:05:14.161Z,12.77
2017-07-01T02:07:47.320Z,12.70
2017-07-01T02:10:20.017Z,12.60
2017-07-01T02:12:52.396Z,13.15
2017-07-01T02:15:24.841Z,11.50
2017-07-01T02:18:06.044Z,12.10
2017-07-01T02:20:44.541Z,11.82
2017-07-01T02:23:17.617Z,13.55
2017-07-01T02:25:58.518Z,12.68
2017-07-01T02:28:31.705Z,13.52
2017-07-01T02:31:04.233Z,13.50
2017-07-01T02:33:57.702Z,13.05
2017-07-01T02:36:50.884Z,12.40
2017-07-01T02:39:29.108Z,13.50
2017-07-01T02:42:01.609Z,14.02
2017-07-01T02:44:33.860Z,14.50
2017-07-01T02:47:19.568Z,13.38
2017-07-01T02:49:53.803Z,14.10
2017-07-01T02:52:38.816Z,12.57
2017-07-01T02:55:13.881Z,13.00
2017-07-01T02:57:46.224Z,13.55
2017-07-01T03:00:18.624Z,13.82
2017-07-01T03:02:57.900Z,13.70
2017-07-01T03:05:30.184Z,12.75
2017-07-01T03:08:02.510Z,14.05
2017-07-01T03:10:34.986Z,13.55
2017-07-01T03:13:07.418Z,13.80
2017-07-01T03:15:39.716Z,13.35
2017-07-01T03:18:13.077Z,13.70
2017-07-01T03:20:45.476Z,14.85
2017-07-01T03:23:17.841Z,14.07
2017-07-01T03:25:57.252Z,17.58
2017-07-01T03:28:29.562Z,15.82
2017-07-01T03:31:01.943Z,14.07
2017-07-01T03:33:44.568Z,15.13
2017-07-01T03:36:18.818Z,14.50
2017-07-01T03:39:03.660Z,14.90
2017-07-01T03:41:58.951Z,15.23
2017-07-01T03:44:50.966Z,16.45
2017-07-01T03:47:24.949Z,17.30
2017-07-01T03:49:57.276Z,14.73
2017-07-01T03:52:29.628Z,17.15
2017-07-01T03:55:02.257Z,14.52
2017-07-01T03:57:39.599Z,16.15
2017-07-01T04:00:11.976Z,16.25
2017-07-01T04:02:44.350Z,15.45
2017-07-01T04:05:17.487Z,14.95
2017-07-01T04:07:49.880Z,14.00
2017-07-01T04:10:23.401Z,15.30
2017-07-01T04:12:55.765Z,15.15
2017-07-01T04:15:28.833Z,14.27
2017-07-01T04:18:01.988Z,14.90
2017-07-01T04:20:34.447Z,16.58
2017-07-01T04:23:06.889Z,15.85
2017-07-01T04:25:39.345Z,15.98
2017-07-01T04:28:11.685Z,15.90
2017-07-01T04:30:44.137Z,14.15
2017-07-01T04:33:16.480Z,14.82
2017-07-01T04:35:48.948Z,14.87
2017-07-01T04:38:28.293Z,14.18
2017-07-01T04:41:00.810Z,15.82
2017-07-01T04:43:41.208Z,16.20
2017-07-01T04:46:16.342Z,13.95
2017-07-01T04:48:56.901Z,14.95
2017-07-01T04:51:34.993Z,14.82
2017-07-01T04:54:17.297Z,13.95
2017-07-01T04:56:55.567Z,11.48
2017-07-01T04:59:27.892Z,10.65
2017-07-01T05:02:06.054Z,11.63
2017-07-01T05:04:40.144Z,10.85
2017-07-01T05:07:22.604Z,10.00
2017-07-01T05:10:12.910Z,9.70
2017-07-01T05:12:45.980Z,8.13
2017-07-01T05:15:24.237Z,10.13
2017-07-01T05:17:56.680Z,9.32
2017-07-01T05:20:32.952Z,8.88
2017-07-01T05:23:09.964Z,9.38
2017-07-01T05:26:04.607Z,9.25
2017-07-01T05:28:39.968Z,8.85
2017-07-01T05:31:25.358Z,8.90
2017-07-01T05:34:03.945Z,8.15
2017-07-01T05:36:48.121Z,9.38
2017-07-01T05:39:25.481Z,8.70
2017-07-01T05:42:06.317Z,9.43
2017-07-01T05:44:56.573Z,7.70
2017-07-01T05:50:28.549Z,5.32
2017-07-01T05:53:01.676Z,4.87
2017-07-01T05:55:34.096Z,3.55
2017-07-01T05:58:07.321Z,2.62
2017-07-01T06:00:40.452Z,2.70
2017-07-01T06:03:12.753Z,2.00
2017-07-01T06:05:46.747Z,1.67
2017-07-01T06:08:19.444Z,2.08
2017-07-01T06:10:56.476Z,2.00
2017-07-01T06:13:35.912Z,1.33
2017-07-01T06:16:40.022Z,1.40
2017-07-01T06:19:19.484Z,1.58
2017-07-01T06:21:51.813Z,1.70
2017-07-01T06:24:28.130Z,1.87
2017-07-01T06:27:21.308Z,1.87
2017-07-01T06:30:05.945Z,1.80
2017-07-01T06:32:50.658Z,2.08
2017-07-01T06:35:30.965Z,2.37
2017-07-01T06:51:38.119Z,3.67
2017-07-01T06:54:23.416Z,3.50
2017-07-01T06:56:58.149Z,4.10
2017-07-01T06:59:32.565Z,4.45
2017-07-01T07:02:07.002Z,3.80
2017-07-01T07:04:41.344Z,3.87
2017-07-01T07:07:15.820Z,3.65
2017-07-01T07:09:50.348Z,3.53
2017-07-01T07:12:24.752Z,3.50
2017-07-01T07:14:59.185Z,3.80
2017-07-01T07:17:34.312Z,4.32
2017-07-01T07:20:08.833Z,3.90
2017-07-01T07:22:44.193Z,4.32
2017-07-01T07:25:18.697Z,4.35
2017-07-01T07:27:53.220Z,4.57
2017-07-01T07:30:28.560Z,4.25
2017-07-01T07:33:03.184Z,3.20
2017-07-01T07:35:37.600Z,3.30
2017-07-01T07:38:11.992Z,3.47
2017-07-01T07:40:46.256Z,3.75
2017-07-01T07:43:20.777Z,3.12
2017-07-01T07:45:56.055Z,3.03
2017-07-01T07:48:30.625Z,2.90
2017-07-01T07:51:05.141Z,2.75
2017-07-01T07:53:39.637Z,2.40
2017-07-01T07:56:14.288Z,2.58
2017-07-01T07:58:48.692Z,2.85
2017-07-01T08:01:23.142Z,3.03
2017-07-01T08:03:57.764Z,3.53
2017-07-01T08:06:32.377Z,3.90
2017-07-01T08:09:07.000Z,3.50
2017-07-01T08:11:41.416Z,3.55
2017-07-01T08:14:15.733Z,3.60
2017-07-01T08:16:50.356Z,3.95
2017-07-01T08:19:24.880Z,5.45
2017-07-01T08:21:59.504Z,5.35
2017-07-01T08:24:33.896Z,5.85
2017-07-01T08:27:08.285Z,5.45
2017-07-01T08:29:43.545Z,5.35
2017-07-01T08:32:18.716Z,6.93
2017-07-01T08:34:53.137Z,5.80
2017-07-01T08:37:27.659Z,6.97
2017-07-01T08:40:02.085Z,6.87
2017-07-01T08:42:36.589Z,7.18
2017-07-01T08:45:11.458Z,7.62
2017-07-01T08:47:45.802Z,7.00
2017-07-01T08:50:20.324Z,8.30
2017-07-01T08:53:04.734Z,7.60
2017-07-01T08:55:39.861Z,8.48
2017-07-01T08:58:15.096Z,5.95
2017-07-01T09:00:49.720Z,7.18
2017-07-01T09:03:24.072Z,6.62
2017-07-01T09:05:58.532Z,6.90
2017-07-01T09:08:32.876Z,6.12
2017-07-01T09:11:07.600Z,8.15
2017-07-01T09:13:42.129Z,7.53
2017-07-01T09:16:18.029Z,7.60
2017-07-01T09:18:52.505Z,8.80
2017-07-01T09:21:27.069Z,7.85
2017-07-01T09:24:01.641Z,8.38
2017-07-01T09:26:37.090Z,8.23
2017-07-01T09:29:11.513Z,8.60
2017-07-01T09:31:46.752Z,9.15
2017-07-01T09:34:21.265Z,8.32
2017-07-01T09:36:55.586Z,11.70
2017-07-01T09:39:29.981Z,9.50
2017-07-01T09:42:04.509Z,10.02
2017-07-01T09:44:38.861Z,8.90
2017-07-01T09:47:13.329Z,8.48
2017-07-01T09:49:48.285Z,8.90
2017-07-01T09:52:22.596Z,9.48
2017-07-01T09:54:57.733Z,8.50
2017-07-01T09:57:32.157Z,9.23
2017-07-01T10:00:06.560Z,8.45
2017-07-01T10:02:41.097Z,8.13
2017-07-01T10:05:15.490Z,8.60
2017-07-01T10:07:49.940Z,8.88
2017-07-01T10:10:24.380Z,7.65
2017-07-01T10:12:58.876Z,6.97
2017-07-01T10:15:34.124Z,7.60
2017-07-01T10:18:08.664Z,7.97
2017-07-01T10:20:43.038Z,7.45
2017-07-01T10:23:18.373Z,9.35
2017-07-01T10:25:53.036Z,7.70
2017-07-01T10:28:27.333Z,8.32
2017-07-01T10:31:01.770Z,8.70
2017-07-01T10:33:36.563Z,8.63
2017-07-01T10:36:11.172Z,8.73
2017-07-01T10:38:46.256Z,8.05
2017-07-01T10:41:20.881Z,8.77
2017-07-01T10:43:56.176Z,8.63
2017-07-01T10:46:30.664Z,7.70
2017-07-01T10:49:05.036Z,8.02
2017-07-01T10:51:39.477Z,9.02
2017-07-01T10:54:13.978Z,9.40
2017-07-01T10:56:48.425Z,8.25
2017-07-01T10:59:22.836Z,7.65
2017-07-01T11:01:57.366Z,8.13
2017-07-01T11:04:31.973Z,7.80
2017-07-01T11:07:06.403Z,7.30
2017-07-01T11:09:41.656Z,6.70
2017-07-01T11:12:16.980Z,8.25
2017-07-01T11:14:51.737Z,7.55
2017-07-01T11:17:26.228Z,7.45
2017-07-01T11:20:00.653Z,7.90
2017-07-01T11:22:35.758Z,8.07
2017-07-01T11:25:10.409Z,8.15
2017-07-01T11:27:44.717Z,7.45
2017-07-01T11:30:19.173Z,7.15
2017-07-01T11:32:53.506Z,7.78
2017-07-01T11:35:27.953Z,6.50
2017-07-01T11:38:02.510Z,7.00
2017-07-01T11:40:36.813Z,7.28
2017-07-01T11:43:11.244Z,7.10
2017-07-01T11:45:45.549Z,7.22
2017-07-01T11:48:19.987Z,6.80
2017-07-01T11:50:54.600Z,7.55
2017-07-01T11:53:29.124Z,7.57
2017-07-01T11:56:03.720Z,6.47
2017-07-01T11:58:39.088Z,5.70
2017-07-01T12:01:13.708Z,5.68
2017-07-01T12:03:48.040Z,6.75
2017-07-01T12:06:22.552Z,7.37
2017-07-01T12:08:57.079Z,6.70
2017-07-01T12:11:31.632Z,7.70
2017-07-01T12:14:06.520Z,6.22
2017-07-01T12:16:41.149Z,6.20
2017-07-01T12:19:15.680Z,5.90
2017-07-01T12:21:50.088Z,5.65
2017-07-01T12:24:24.513Z,5.45
2017-07-01T12:26:58.929Z,6.20
2017-07-01T12:29:33.204Z,5.28
2017-07-01T12:32:07.648Z,5.40
2017-07-01T12:34:42.053Z,5.05
2017-07-01T12:37:17.326Z,6.03
2017-07-01T12:39:51.744Z,5.18
2017-07-01T12:42:26.372Z,5.80
2017-07-01T12:45:01.401Z,5.47
2017-07-01T12:47:36.070Z,5.05
2017-07-01T12:50:10.573Z,4.50
2017-07-01T12:52:47.320Z,5.10
2017-07-01T12:55:21.733Z,4.90
2017-07-01T12:57:56.235Z,4.72
2017-07-01T13:00:30.780Z,4.82
2017-07-01T13:03:05.218Z,4.28
2017-07-01T13:05:39.648Z,4.70
2017-07-01T13:08:14.384Z,4.13
2017-07-01T13:10:48.964Z,4.83
2017-07-01T13:13:23.351Z,3.90
2017-07-01T13:15:57.960Z,4.73
2017-07-01T13:18:32.465Z,4.00
2017-07-01T13:21:07.065Z,3.87
2017-07-01T13:23:41.369Z,4.40
2017-07-01T13:26:15.798Z,4.20
2017-07-01T13:28:50.177Z,4.37
2017-07-01T13:31:25.333Z,4.50
2017-07-01T13:34:00.303Z,4.67
2017-07-01T13:36:34.800Z,4.37
2017-07-01T13:39:09.332Z,3.97
2017-07-01T13:41:43.732Z,4.33
2017-07-01T13:44:18.311Z,4.50
2017-07-01T13:46:52.890Z,5.10
2017-07-01T13:49:28.436Z,4.97
2017-07-01T13:52:02.914Z,4.30
2017-07-01T13:54:37.372Z,4.60
2017-07-01T13:57:11.748Z,4.43
2017-07-01T13:59:46.128Z,4.50
2017-07-01T14:02:20.602Z,4.67
2017-07-01T14:04:55.056Z,4.30
2017-07-01T14:07:29.565Z,4.40
2017-07-01T14:10:04.020Z,4.50
2017-07-01T14:12:38.437Z,4.57
2017-07-01T14:15:12.782Z,4.37
2017-07-01T14:17:47.293Z,4.50
2017-07-01T14:20:22.583Z,4.30
2017-07-01T14:22:57.080Z,4.30
2017-07-01T14:25:31.564Z,4.50
2017-07-01T14:28:06.680Z,4.18
2017-07-01T14:30:41.168Z,4.22
2017-07-01T14:33:15.537Z,3.78
2017-07-01T14:35:50.236Z,4.87
2017-07-01T14:38:24.644Z,4.25
2017-07-01T14:40:59.187Z,4.22
2017-07-01T14:43:34.588Z,5.28
2017-07-01T14:46:08.945Z,4.43
2017-07-01T14:48:43.317Z,4.97
2017-07-01T14:51:17.680Z,4.90
2017-07-01T14:53:52.044Z,5.87
2017-07-01T14:56:26.668Z,3.83
2017-07-01T14:59:02.060Z,4.50
2017-07-01T15:01:36.581Z,4.50
2017-07-01T15:04:11.096Z,4.50
2017-07-01T15:06:45.532Z,4.22
2017-07-01T15:09:20.026Z,4.00
2017-07-01T15:11:54.719Z,4.22
2017-07-01T15:14:29.034Z,4.13
2017-07-01T15:17:03.506Z,4.87
2017-07-01T15:19:37.924Z,4.45
2017-07-01T15:22:12.478Z,4.03
2017-07-01T15:24:47.785Z,5.20
2017-07-01T15:27:22.318Z,4.47
2017-07-01T15:29:56.737Z,4.53
2017-07-01T15:32:31.354Z,4.53
2017-07-01T15:35:06.901Z,3.80
2017-07-01T15:37:41.595Z,4.12
2017-07-01T15:40:16.043Z,4.05
2017-07-01T15:42:50.352Z,4.50
2017-07-01T15:45:25.496Z,4.53
2017-07-01T15:47:59.809Z,3.90
2017-07-01T15:50:34.437Z,5.05
2017-07-01T15:53:08.951Z,4.62
2017-07-01T15:55:43.581Z,3.85
2017-07-01T15:58:18.877Z,4.30
2017-07-01T16:01:05.162Z,4.03
2017-07-01T16:03:39.792Z,4.50
2017-07-01T16:06:14.212Z,4.30
2017-07-01T16:08:48.604Z,4.28
2017-07-01T16:11:22.960Z,5.82
2017-07-01T16:13:57.560Z,4.87
2017-07-01T16:16:31.872Z,4.20
2017-07-01T16:19:06.252Z,4.50
2017-07-01T16:21:40.797Z,4.80
2017-07-01T16:24:15.168Z,4.35
2017-07-01T16:26:49.695Z,5.15
2017-07-01T16:29:24.136Z,4.28
2017-07-01T16:31:58.646Z,4.72
2017-07-01T16:34:33.061Z,5.60
2017-07-01T16:37:07.503Z,4.82
2017-07-01T16:39:41.977Z,4.60
2017-07-01T16:42:16.451Z,5.05
2017-07-01T16:44:50.960Z,4.80
2017-07-01T16:47:25.481Z,3.90
2017-07-01T16:50:00.002Z,4.87
2017-07-01T16:52:35.601Z,3.97
2017-07-01T16:55:10.177Z,5.82
2017-07-01T16:57:44.608Z,4.97
2017-07-01T17:00:19.088Z,4.90
2017-07-01T17:02:53.662Z,4.90
2017-07-01T17:05:28.222Z,5.22
2017-07-01T17:08:03.373Z,5.25
2017-07-01T17:10:38.165Z,4.37
2017-07-01T17:13:12.640Z,13.38
2017-07-01T17:15:47.214Z,4.53
2017-07-01T17:18:21.562Z,4.25
2017-07-01T17:20:55.952Z,5.35
2017-07-01T17:23:30.517Z,5.30
2017-07-01T17:26:05.413Z,5.18
2017-07-01T17:28:39.750Z,5.43
2017-07-01T17:31:14.193Z,4.87
2017-07-01T17:33:48.693Z,4.72
2017-07-01T17:36:23.116Z,4.50
2017-07-01T17:38:58.240Z,4.50
2017-07-01T17:41:32.813Z,5.15
2017-07-01T17:44:07.205Z,5.85
2017-07-01T17:46:41.820Z,5.10
2017-07-01T17:49:16.225Z,5.32
2017-07-01T17:51:50.779Z,5.53
2017-07-01T17:54:25.225Z,5.95
2017-07-01T17:56:59.592Z,5.12
2017-07-01T17:59:34.058Z,5.65
2017-07-01T18:02:08.593Z,5.50
2017-07-01T18:04:43.116Z,5.62
2017-07-01T18:07:17.621Z,5.90
2017-07-01T18:09:52.113Z,5.55
2017-07-01T18:12:26.532Z,5.43
2017-07-01T18:15:00.968Z,5.85
2017-07-01T18:17:35.715Z,5.40
2017-07-01T18:20:10.113Z,5.43
2017-07-01T18:22:44.796Z,4.90
2017-07-01T18:25:19.310Z,5.18
2017-07-01T18:27:54.535Z,5.47
2017-07-01T18:30:29.050Z,5.95
2017-07-01T18:33:03.393Z,5.22
2017-07-01T18:35:37.844Z,5.47
2017-07-01T18:41:15.925Z,6.00
2017-07-01T18:43:51.183Z,6.65
2017-07-01T18:46:26.352Z,6.60
2017-07-01T18:49:00.761Z,6.50
2017-07-01T18:51:35.188Z,5.90
2017-07-01T18:54:10.281Z,5.45
2017-07-01T18:56:44.678Z,5.45
2017-07-01T18:59:19.201Z,5.80
2017-07-01T19:01:54.544Z,5.95
2017-07-01T19:04:29.707Z,5.22
2017-07-01T19:07:04.493Z,6.90
2017-07-01T19:09:38.960Z,6.50
2017-07-01T19:12:13.433Z,6.32
2017-07-01T19:14:47.908Z,5.57
2017-07-01T19:17:22.264Z,6.05
2017-07-01T19:19:57.465Z,6.07
2017-07-01T19:22:31.893Z,5.65
2017-07-01T19:25:06.327Z,6.43
2017-07-01T19:27:40.809Z,6.25
2017-07-01T19:30:15.285Z,5.68
2017-07-01T19:32:49.792Z,5.30
2017-07-01T19:35:24.195Z,5.37
2017-07-01T19:37:58.576Z,5.78
2017-07-01T19:40:33.198Z,4.97
2017-07-01T19:43:07.674Z,6.03
2017-07-01T19:45:42.000Z,4.95
2017-07-01T19:48:16.424Z,4.97
2017-07-01T19:50:50.924Z,5.15
2017-07-01T19:53:25.293Z,4.15
2017-07-01T19:55:59.856Z,5.43
2017-07-01T19:58:34.384Z,4.80
2017-07-01T20:01:09.685Z,5.20
2017-07-01T20:03:44.124Z,5.43
2017-07-01T20:06:18.676Z,5.40
2017-07-01T20:08:53.188Z,5.50
2017-07-01T20:11:27.738Z,5.20
2017-07-01T20:14:02.217Z,5.22
2017-07-01T20:16:36.628Z,5.28
2017-07-01T20:19:11.160Z,5.43
2017-07-01T20:21:45.560Z,5.22
2017-07-01T20:24:20.171Z,6.87
2017-07-01T20:26:54.770Z,7.25
2017-07-01T20:29:29.952Z,6.45
2017-07-01T20:32:04.708Z,6.35
2017-07-01T20:34:39.180Z,6.97
2017-07-01T20:37:13.541Z,6.35
2017-07-01T20:39:48.009Z,6.70
2017-07-01T20:42:22.599Z,5.95
2017-07-01T20:44:57.093Z,7.00
2017-07-01T20:47:31.513Z,7.28
2017-07-01T20:50:05.945Z,7.37
2017-07-01T20:52:40.392Z,6.25
2017-07-01T20:55:14.853Z,6.57
2017-07-01T20:57:49.417Z,7.72
2017-07-01T21:00:23.897Z,6.97
2017-07-01T21:02:58.233Z,7.50
2017-07-01T21:05:32.775Z,7.65
2017-07-01T21:08:07.269Z,8.50
2017-07-01T21:10:41.700Z,8.32
2017-07-01T21:13:16.711Z,7.75
2017-07-01T21:15:51.160Z,8.10
2017-07-01T21:18:25.669Z,8.82
2017-07-01T21:21:00.066Z,8.95
2017-07-01T21:23:34.476Z,9.90
2017-07-01T21:26:08.927Z,9.60
2017-07-01T21:28:43.497Z,8.45
2017-07-01T21:31:18.765Z,10.00
2017-07-01T21:33:53.328Z,10.00
2017-07-01T21:36:28.624Z,9.25
2017-07-01T21:39:03.013Z,8.20
2017-07-01T21:41:37.506Z,9.68
2017-07-01T21:44:11.902Z,10.63
2017-07-01T21:46:46.414Z,10.30
2017-07-01T21:49:20.941Z,11.02
2017-07-01T21:51:55.593Z,9.95
2017-07-01T21:54:29.981Z,10.65
2017-07-01T21:57:04.400Z,10.32
2017-07-01T21:59:38.944Z,8.40
2017-07-01T22:02:13.336Z,10.70
2017-07-01T22:04:47.894Z,6.10
2017-07-01T22:07:22.420Z,9.35
2017-07-01T22:09:56.908Z,11.10
2017-07-01T22:12:31.299Z,10.75
2017-07-01T22:15:06.592Z,10.48
2017-07-01T22:17:41.152Z,10.45
2017-07-01T22:20:16.361Z,10.40
2017-07-01T22:22:50.772Z,9.60
2017-07-01T22:25:25.218Z,11.25
2017-07-01T22:27:59.796Z,9.93
2017-07-01T22:30:34.345Z,9.30
2017-07-01T22:33:08.748Z,8.98
2017-07-01T22:35:43.101Z,9.73
2017-07-01T22:38:18.184Z,10.48
2017-07-01T22:40:52.780Z,10.25
2017-07-01T22:43:28.045Z,8.43
2017-07-01T22:46:02.395Z,10.88
2017-07-01T22:48:36.929Z,9.20
2017-07-01T22:51:11.419Z,10.55
2017-07-01T22:53:45.947Z,10.48
2017-07-01T22:56:20.340Z,12.50
2017-07-01T22:58:54.859Z,9.57
2017-07-01T23:01:29.256Z,11.05
2017-07-01T23:04:03.729Z,10.70
2017-07-01T23:06:38.047Z,9.77
2017-07-01T23:09:12.523Z,11.07
2017-07-01T23:11:47.082Z,12.60
2017-07-01T23:14:21.717Z,11.38
2017-07-01T23:16:56.093Z,11.32
2017-07-01T23:19:30.568Z,10.93
2017-07-01T23:22:05.001Z,11.20
2017-07-01T23:24:39.403Z,10.57
2017-07-01T23:27:13.788Z,10.82
2017-07-01T23:29:48.322Z,9.90
2017-07-01T23:32:22.739Z,9.45
2017-07-01T23:34:57.252Z,9.25
2017-07-01T23:37:31.599Z,10.93
2017-07-01T23:40:06.128Z,8.73
2017-07-01T23:42:40.761Z,11.12
2017-07-01T23:45:15.263Z,8.52
2017-07-01T23:47:49.664Z,10.90
2017-07-01T23:50:24.201Z,9.20
2017-07-01T23:52:58.929Z,11.18
2017-07-01T23:55:33.384Z,7.32
2017-07-01T23:58:07.889Z,11.12
